Paradise, MI (49768)

9:27 AM EDT on April 01, 2015 (GMT -0400)
APRSWXNET | | Change Station
CLOSE
Current Station
Personal Weather Station
Location: Paradise, MI
Elevation: 643 ft
Nearby Weather Stations

Elev 643 ft 46.61 °N, 85.04 °W | Updated 46 minutes ago

Mostly Cloudy
Mostly Cloudy
29 °F
Feels Like 29 °F
N
0
Wind Variable Wind from South
Gusts 2.0 mph

Today
High -- | Low -- °F
--% Chance of Precip.
Yesterday
High -- | Low -- °F
Precip. -- in
7:20 AM 8:09 PM
Waxing Gibbous, 92% visible
Pressure 30.05 in
Visibility 1.0 miles
Clouds Overcast 200 ft
Windchill 29 °F
Dew Point 27 °F
Humidity 94%
Rainfall in
Snow Depth Not available.
UV 0 out of 12
Pollen 2.90 out of 12
Air Quality Not available.
Flu Activity Not available.
METAR KERY 011314Z AUTO 00000KT 1SM BR OVC002 M02/M02 A3005 RMK AO2 T10211021

More Conditions Fewer Conditions

Pressure 30.05 in
Visibility 1.0 miles
Clouds Overcast 200 ft
Windchill 29 °F
Dew Point 27 °F
Humidity 94%
Rainfall in
Snow Depth Not available.
UV 0 out of 12
Pollen 2.90 out of 12
Air Quality Not available.
Flu Activity Not available.
METAR KERY 011314Z AUTO 00000KT 1SM BR OVC002 M02/M02 A3005 RMK AO2 T10211021

More Conditions Fewer Conditions

Nowcast | as of 9:00 am EDT on April 1, 2015

At 10 am...partly cloudy. Temperature 32. South winds 7 mph. At 12 PM...partly cloudy. Temperature 35. Southeast winds 9 mph. At 2 PM...mostly cloudy. Chance of rain or snow. Temperature 38. Southeast winds 9 mph. At 4 PM...mostly cloudy. Chance of rain or snow. Temperature 39. Southeast winds 13 mph.

×

10-Day Weather Forecast

Almanac

Astronomy

Apr. 01, 2015 Rise Set
Actual Time
Civil Twilight
Nautical Twilight
Astronomical Twilight
Moon
Length of Visible Light
Length of Day
Tomorrow will be .
, % of the Moon is Illuminated

Today's Extremes

State Highs State Lows

Community

WunderPhotos

Upload Photos

1,809,953 photos uploaded!

WunderBlogs® & News

Nearby

Air Quality

  Air Quality AQ Index Pollutant
Not available.

Snow Depth

Station Depth Elevation

Earthquake Activity

City Distance Mag. Time & Date
Minimum magnitude displayed is 2.5.

Coastal Water Temperatures

Place Temperature

Stations

Nearby Weather Stations

Station Location Temp. Windchill Dew Point Humidity Wind Precip. Elev Updated Type